createdAt,value
2017-08-11T00:00:41.104Z,16.3
2017-08-11T00:01:43.563Z,16.3
2017-08-11T00:02:45.909Z,16.4
2017-08-11T00:03:48.426Z,16.3
2017-08-11T00:04:50.778Z,16.3
2017-08-11T00:05:53.186Z,16.3
2017-08-11T00:06:55.829Z,16.3
2017-08-11T00:07:58.252Z,16.2
2017-08-11T00:09:00.581Z,16.3
2017-08-11T00:10:02.959Z,16.3
2017-08-11T00:11:05.337Z,16.2
2017-08-11T00:12:07.801Z,16.3
2017-08-11T00:13:10.168Z,16.2
2017-08-11T00:14:12.548Z,16.2
2017-08-11T00:15:14.972Z,16.3
2017-08-11T00:16:17.883Z,16.2
2017-08-11T00:17:20.501Z,16.3
2017-08-11T00:18:22.862Z,16.3
2017-08-11T00:19:25.203Z,16.3
2017-08-11T00:20:30.002Z,16.4
2017-08-11T00:21:33.016Z,16.5
2017-08-11T00:22:35.348Z,16.4
2017-08-11T00:23:37.745Z,16.4
2017-08-11T00:24:40.090Z,16.4
2017-08-11T00:25:42.449Z,16.4
2017-08-11T00:26:44.780Z,16.4
2017-08-11T00:27:47.121Z,16.3
2017-08-11T00:28:49.485Z,16.4
2017-08-11T00:29:51.827Z,16.3
2017-08-11T00:30:54.184Z,16.3
2017-08-11T00:31:56.573Z,16.4
2017-08-11T00:32:58.912Z,16.5
2017-08-11T00:34:01.262Z,16.4
2017-08-11T00:35:03.603Z,16.3
2017-08-11T00:36:05.987Z,16.3
2017-08-11T00:37:08.400Z,16.4
2017-08-11T00:38:10.789Z,16.4
2017-08-11T00:39:13.184Z,16.5
2017-08-11T00:40:15.536Z,16.4
2017-08-11T00:41:18.102Z,16.4
2017-08-11T00:42:20.432Z,16.4
2017-08-11T00:43:22.744Z,16.4
2017-08-11T00:44:25.070Z,16.3
2017-08-11T00:45:27.423Z,16.3
2017-08-11T00:46:29.811Z,16.3
2017-08-11T00:47:32.166Z,16.4
2017-08-11T00:48:34.502Z,16.4
2017-08-11T00:49:36.988Z,16.4
2017-08-11T00:50:39.369Z,16.4
2017-08-11T00:51:41.716Z,16.3
2017-08-11T00:52:44.067Z,16.2
2017-08-11T00:53:46.442Z,16.3
2017-08-11T00:54:48.793Z,16.4
2017-08-11T00:55:51.167Z,16.3
2017-08-11T00:56:53.539Z,16.4
2017-08-11T00:57:55.872Z,16.4
2017-08-11T00:58:58.287Z,16.4
2017-08-11T01:00:00.627Z,16.4
2017-08-11T01:01:02.998Z,16.4
2017-08-11T01:02:05.354Z,16.4
2017-08-11T01:03:07.974Z,16.5
2017-08-11T01:04:10.305Z,16.5
2017-08-11T01:05:12.633Z,16.5
2017-08-11T01:06:14.975Z,16.5
2017-08-11T01:07:17.372Z,16.4
2017-08-11T01:08:19.719Z,16.5
2017-08-11T01:09:22.162Z,16.5
2017-08-11T01:10:24.480Z,16.5
2017-08-11T01:11:26.852Z,16.5
2017-08-11T01:12:29.337Z,16.5
2017-08-11T01:13:31.734Z,16.4
2017-08-11T01:14:34.055Z,16.4
2017-08-11T01:15:36.447Z,16.4
2017-08-11T01:16:38.796Z,16.4
2017-08-11T01:17:41.109Z,16.4
2017-08-11T01:18:43.470Z,16.3
2017-08-11T01:19:46.064Z,16.4
2017-08-11T01:20:48.435Z,16.4
2017-08-11T01:21:50.783Z,16.4
2017-08-11T01:22:53.174Z,16.4
2017-08-11T01:23:55.568Z,16.4
2017-08-11T01:24:57.949Z,16.4
2017-08-11T01:26:00.315Z,16.4
2017-08-11T01:27:02.623Z,16.4
2017-08-11T01:28:04.978Z,16.4
2017-08-11T01:29:07.340Z,16.5
2017-08-11T01:30:09.726Z,16.5
2017-08-11T01:31:12.278Z,16.4
2017-08-11T01:32:14.645Z,16.3
2017-08-11T01:33:17.127Z,16.4
2017-08-11T01:34:19.497Z,16.5
2017-08-11T01:35:21.827Z,16.5
2017-08-11T01:36:24.152Z,16.5
2017-08-11T01:37:26.670Z,16.4
2017-08-11T01:38:29.016Z,16.5
2017-08-11T01:39:31.353Z,16.4
2017-08-11T01:40:33.784Z,16.5
2017-08-11T01:41:36.120Z,16.6
2017-08-11T01:42:38.485Z,16.4
2017-08-11T01:43:40.807Z,16.3
2017-08-11T01:44:43.167Z,16.4
2017-08-11T01:45:45.549Z,16.4
2017-08-11T01:46:47.977Z,16.4
2017-08-11T01:47:50.354Z,16.4
2017-08-11T01:48:52.673Z,16.4
2017-08-11T01:49:55.049Z,16.4
2017-08-11T01:50:57.532Z,16.4
2017-08-11T01:51:59.850Z,16.4
2017-08-11T01:53:02.218Z,16.4
2017-08-11T01:54:04.584Z,16.5
2017-08-11T01:55:06.997Z,16.5
2017-08-11T01:56:09.378Z,16.5
2017-08-11T01:57:12.047Z,16.5
2017-08-11T01:58:14.389Z,16.4
2017-08-11T01:59:16.765Z,16.4
2017-08-11T02:00:19.096Z,16.5
2017-08-11T02:01:21.743Z,16.4
2017-08-11T02:02:24.365Z,16.5
2017-08-11T02:03:26.729Z,16.5
2017-08-11T02:04:29.073Z,16.4
2017-08-11T02:05:31.389Z,16.5
2017-08-11T02:06:33.824Z,16.5
2017-08-11T02:07:36.214Z,16.5
2017-08-11T02:08:38.567Z,16.5
2017-08-11T02:09:40.882Z,16.4
2017-08-11T02:10:43.217Z,16.4
2017-08-11T02:11:45.615Z,16.4
2017-08-11T02:12:48.423Z,16.4
2017-08-11T02:13:50.998Z,16.2
2017-08-11T02:14:53.288Z,16.3
2017-08-11T02:15:55.600Z,16.4
2017-08-11T02:16:58.000Z,16.4
2017-08-11T02:18:00.426Z,16.4
2017-08-11T02:19:02.969Z,16.4
2017-08-11T02:20:05.945Z,16.5
2017-08-11T02:21:08.379Z,16.5
2017-08-11T02:22:10.748Z,16.5
2017-08-11T02:23:13.064Z,16.4
2017-08-11T02:24:15.418Z,16.4
2017-08-11T02:25:17.745Z,16.5
2017-08-11T02:26:20.356Z,16.5
2017-08-11T02:27:22.998Z,16.4
2017-08-11T02:28:25.354Z,16.3
2017-08-11T02:29:28.002Z,16.4
2017-08-11T02:30:30.423Z,16.3
2017-08-11T02:31:32.798Z,16.5
2017-08-11T02:32:35.111Z,16.4
2017-08-11T02:33:37.478Z,16.4
2017-08-11T02:34:39.824Z,16.4
2017-08-11T02:35:42.195Z,16.5
2017-08-11T02:36:44.544Z,16.4
2017-08-11T02:37:47.598Z,16.3
2017-08-11T02:38:50.167Z,16.4
2017-08-11T02:39:52.498Z,16.3
2017-08-11T02:40:54.817Z,16.4
2017-08-11T02:41:57.322Z,16.4
2017-08-11T02:42:59.661Z,16.4
2017-08-11T02:44:02.025Z,16.3
2017-08-11T02:45:04.338Z,16.4
2017-08-11T02:46:06.711Z,16.4
2017-08-11T02:47:09.089Z,16.3
2017-08-11T02:48:11.430Z,16.3
2017-08-11T02:49:13.944Z,16.3
2017-08-11T02:50:16.294Z,16.3
2017-08-11T02:51:18.873Z,16.3
2017-08-11T02:52:21.277Z,16.4
2017-08-11T02:53:23.607Z,16.4
2017-08-11T02:54:26.069Z,16.4
2017-08-11T02:55:28.434Z,16.5
2017-08-11T02:56:30.802Z,16.3
2017-08-11T02:57:33.139Z,16.3
2017-08-11T02:58:35.493Z,16.4
2017-08-11T02:59:37.882Z,16.4
2017-08-11T03:00:40.254Z,16.4
2017-08-11T03:01:42.571Z,16.1
2017-08-11T03:02:44.965Z,16.2
2017-08-11T03:03:47.314Z,16.3
2017-08-11T03:04:49.670Z,16.4
2017-08-11T03:05:52.020Z,16.5
2017-08-11T03:06:54.351Z,16.5
2017-08-11T03:07:58.652Z,16.3
2017-08-11T03:09:01.059Z,16.3
2017-08-11T03:10:03.408Z,16.2
2017-08-11T03:11:05.781Z,15.9
2017-08-11T03:12:08.134Z,16.3
2017-08-11T03:13:10.568Z,16.4
2017-08-11T03:14:12.895Z,16.2
2017-08-11T03:15:15.226Z,16.4
2017-08-11T03:16:17.964Z,16.1
2017-08-11T03:17:20.349Z,16.3
2017-08-11T03:18:22.917Z,16.3
2017-08-11T03:19:25.231Z,16.3
2017-08-11T03:20:27.662Z,16.3
2017-08-11T03:21:30.030Z,16.3
2017-08-11T03:22:32.360Z,16.3
2017-08-11T03:23:34.731Z,16.4
2017-08-11T03:24:37.131Z,16.3
2017-08-11T03:25:39.475Z,16.3
2017-08-11T03:26:41.818Z,16.3
2017-08-11T03:27:44.132Z,16.3
2017-08-11T03:28:46.484Z,16.3
2017-08-11T03:29:48.914Z,16.4
2017-08-11T03:30:51.259Z,16.3
2017-08-11T03:31:53.595Z,16.3
2017-08-11T03:32:55.937Z,16.3
2017-08-11T03:33:58.315Z,16.3
2017-08-11T03:35:00.647Z,16.2
2017-08-11T03:36:02.989Z,16.3
2017-08-11T03:37:05.303Z,16.3
2017-08-11T03:38:07.947Z,16.3
2017-08-11T03:39:10.281Z,16
2017-08-11T03:40:12.729Z,16.3
2017-08-11T03:41:15.088Z,16.2
2017-08-11T03:42:17.438Z,16.3
2017-08-11T03:43:19.753Z,16.2
2017-08-11T03:44:22.097Z,16.3
2017-08-11T03:45:24.452Z,16.3
2017-08-11T03:46:26.784Z,16.3
2017-08-11T03:47:29.110Z,16.4
2017-08-11T03:48:31.589Z,16.5
2017-08-11T03:49:33.907Z,16.4
2017-08-11T03:50:36.282Z,16.4
2017-08-11T03:51:38.785Z,16.2
2017-08-11T03:52:41.096Z,16.2
2017-08-11T03:53:43.432Z,16.3
2017-08-11T03:54:45.756Z,16.1
2017-08-11T03:55:48.125Z,16.2
2017-08-11T03:56:50.518Z,16.1
2017-08-11T03:57:52.844Z,16
2017-08-11T03:58:55.181Z,16.2
2017-08-11T03:59:57.577Z,16.2
2017-08-11T04:00:59.959Z,16.2
2017-08-11T04:02:02.398Z,16.1
2017-08-11T04:03:04.819Z,16.2
2017-08-11T04:04:07.387Z,16.2
2017-08-11T04:05:09.763Z,16.3
2017-08-11T04:06:12.246Z,16.1
2017-08-11T04:07:14.589Z,16.2
2017-08-11T04:08:16.973Z,16.2
2017-08-11T04:09:19.336Z,16.2
2017-08-11T04:10:21.672Z,16.2
2017-08-11T04:11:23.997Z,16.2
2017-08-11T04:12:26.390Z,16.2
2017-08-11T04:13:28.746Z,16.1
2017-08-11T04:14:31.146Z,15.9
2017-08-11T04:15:33.499Z,16.1
2017-08-11T04:16:35.932Z,16.1
2017-08-11T04:17:38.333Z,16.1
2017-08-11T04:18:40.629Z,16.1
2017-08-11T04:19:42.967Z,16.1
2017-08-11T04:20:45.285Z,16
2017-08-11T04:21:47.711Z,16
2017-08-11T04:22:50.055Z,16.1
2017-08-11T04:23:52.445Z,16.2
2017-08-11T04:24:54.765Z,16.1
2017-08-11T04:25:57.111Z,16
2017-08-11T04:26:59.489Z,16.1
2017-08-11T04:28:02.102Z,16.2
2017-08-11T04:29:04.633Z,16.1
2017-08-11T04:30:06.948Z,16.1
2017-08-11T04:31:09.239Z,16
2017-08-11T04:32:11.607Z,16.1
2017-08-11T04:33:14.406Z,16.2
2017-08-11T04:34:16.808Z,16.1
2017-08-11T04:35:19.179Z,16.1
2017-08-11T04:36:21.545Z,16.1
2017-08-11T04:37:23.973Z,16.2
2017-08-11T04:38:26.301Z,16.2
2017-08-11T04:39:28.797Z,16.2
2017-08-11T04:40:31.159Z,16.2
2017-08-11T04:41:33.476Z,16.2
2017-08-11T04:42:35.852Z,16.3
2017-08-11T04:43:38.257Z,16.1
2017-08-11T04:44:40.556Z,16.1
2017-08-11T04:45:42.892Z,15.9
2017-08-11T04:46:45.602Z,16.1
2017-08-11T04:47:48.275Z,15.9
2017-08-11T04:48:50.635Z,16.1
2017-08-11T04:49:55.783Z,16
2017-08-11T04:50:58.811Z,15.9
2017-08-11T04:52:04.470Z,16.1
2017-08-11T04:53:06.907Z,16.2
2017-08-11T04:54:09.278Z,16.2
2017-08-11T04:55:11.628Z,16.1
2017-08-11T04:56:14.297Z,16
2017-08-11T04:57:17.084Z,15.9
2017-08-11T04:58:20.792Z,16
2017-08-11T04:59:23.155Z,16
2017-08-11T05:00:25.496Z,16
2017-08-11T05:01:29.529Z,15.9
2017-08-11T05:02:31.976Z,16
2017-08-11T05:03:34.340Z,16.1
2017-08-11T05:04:36.719Z,15.8
2017-08-11T05:05:39.095Z,15.9
2017-08-11T05:06:41.500Z,15.9
2017-08-11T05:07:43.862Z,15.8
2017-08-11T05:08:46.903Z,16
2017-08-11T05:09:49.379Z,15.8
2017-08-11T05:10:51.767Z,16
2017-08-11T05:11:54.096Z,15.9
2017-08-11T05:12:56.519Z,15.9
2017-08-11T05:13:59.000Z,15.6
2017-08-11T05:15:01.449Z,15.9
2017-08-11T05:16:03.856Z,16
2017-08-11T05:17:06.324Z,16.1
2017-08-11T05:18:08.756Z,16
2017-08-11T05:19:11.141Z,15.9
2017-08-11T05:20:13.538Z,15.9
2017-08-11T05:21:15.911Z,15.9
2017-08-11T05:22:18.386Z,16
2017-08-11T05:23:20.816Z,16
2017-08-11T05:24:23.216Z,16
2017-08-11T05:25:25.699Z,16
2017-08-11T05:26:28.042Z,16
2017-08-11T05:27:31.380Z,16.1
2017-08-11T05:28:33.826Z,16.1
2017-08-11T05:29:36.190Z,16.2
2017-08-11T05:30:38.861Z,16.2
2017-08-11T05:31:41.612Z,16.2
2017-08-11T05:32:43.996Z,16.1
2017-08-11T05:33:46.361Z,16.1
2017-08-11T05:34:48.855Z,16
2017-08-11T05:35:51.297Z,16
2017-08-11T05:36:53.728Z,16.1
2017-08-11T05:37:56.072Z,16.1
2017-08-11T05:38:58.502Z,16
2017-08-11T05:40:00.884Z,16
2017-08-11T05:41:03.240Z,16.1
2017-08-11T05:42:05.610Z,15.6
2017-08-11T05:43:08.038Z,16
2017-08-11T05:44:10.398Z,16
2017-08-11T05:45:12.749Z,16.1
2017-08-11T05:46:15.127Z,16.1
2017-08-11T05:47:17.646Z,16.1
2017-08-11T05:48:20.387Z,16.2
2017-08-11T05:49:23.612Z,16.2
2017-08-11T05:50:26.422Z,16.2
2017-08-11T05:51:29.687Z,16.2
2017-08-11T05:52:32.377Z,16.2
2017-08-11T05:53:34.790Z,16.2
2017-08-11T05:54:37.373Z,16.2
2017-08-11T05:55:40.236Z,16.1
2017-08-11T05:56:43.193Z,16
2017-08-11T05:57:45.801Z,16.1
2017-08-11T05:58:48.164Z,16.2
2017-08-11T05:59:51.573Z,16.2
2017-08-11T06:00:53.873Z,16.3
2017-08-11T06:01:56.283Z,16.2
2017-08-11T06:02:58.705Z,16.2
2017-08-11T06:04:01.169Z,16.1
2017-08-11T06:05:03.677Z,16.2
2017-08-11T06:06:06.189Z,15.9
2017-08-11T06:07:09.526Z,16.2
2017-08-11T06:08:12.180Z,16.3
2017-08-11T06:09:14.760Z,16.3
2017-08-11T06:10:17.116Z,16.2
2017-08-11T06:11:19.640Z,15.9
2017-08-11T06:12:22.119Z,16.2
2017-08-11T06:13:24.535Z,16.3
2017-08-11T06:14:26.872Z,16.2
2017-08-11T06:15:29.256Z,16.2
2017-08-11T06:16:31.693Z,16.1
2017-08-11T06:17:34.042Z,16.2
2017-08-11T06:18:36.420Z,16.3
2017-08-11T06:19:38.884Z,16.2
2017-08-11T06:20:41.287Z,16.3
2017-08-11T06:21:43.914Z,16.2
2017-08-11T06:22:46.289Z,16.3
2017-08-11T06:23:48.783Z,16.2
2017-08-11T06:24:51.148Z,16.2
2017-08-11T06:25:53.569Z,16.2
2017-08-11T06:26:55.958Z,16.2
2017-08-11T06:27:58.385Z,16.1
2017-08-11T06:29:00.794Z,16.3
2017-08-11T06:30:03.269Z,16.2
2017-08-11T06:31:05.644Z,16.3
2017-08-11T06:32:08.070Z,16.2
2017-08-11T06:33:10.520Z,16.1
2017-08-11T06:34:12.916Z,16.2
2017-08-11T06:35:15.352Z,16.2
2017-08-11T06:36:18.933Z,16
2017-08-11T06:37:22.425Z,16.3
2017-08-11T06:38:24.807Z,16.2
2017-08-11T06:39:27.270Z,16.2
2017-08-11T06:40:29.615Z,16.1
2017-08-11T06:41:32.108Z,16.2
2017-08-11T06:42:34.565Z,16.2
2017-08-11T06:43:36.960Z,16.3
2017-08-11T06:44:39.436Z,16.3
2017-08-11T06:45:41.791Z,16.1
2017-08-11T06:46:44.193Z,16.3
2017-08-11T06:47:46.556Z,16.3
2017-08-11T06:48:49.049Z,16.1
2017-08-11T06:49:51.409Z,16.3
2017-08-11T06:50:53.776Z,16.3
2017-08-11T06:51:56.174Z,15.9
2017-08-11T06:52:58.684Z,16.3
2017-08-11T06:54:01.098Z,16
2017-08-11T06:55:04.113Z,16.5
2017-08-11T06:56:07.021Z,16.4
2017-08-11T06:57:09.550Z,16.3
2017-08-11T06:58:11.957Z,16.3
2017-08-11T06:59:14.387Z,16
2017-08-11T07:00:16.776Z,16.4
2017-08-11T07:01:20.301Z,16.3
2017-08-11T07:02:22.800Z,16.4
2017-08-11T07:03:26.143Z,16.4
2017-08-11T07:04:28.740Z,16.3
2017-08-11T07:05:31.130Z,16.1
2017-08-11T07:06:33.535Z,16.1
2017-08-11T07:07:36.002Z,16.3
2017-08-11T07:08:38.507Z,16.1
2017-08-11T07:09:40.937Z,16.2
2017-08-11T07:10:44.837Z,16.4
2017-08-11T07:11:47.244Z,16.4
2017-08-11T07:12:49.765Z,16.5
2017-08-11T07:13:52.155Z,16.5
2017-08-11T07:14:54.617Z,16.5
2017-08-11T07:15:56.953Z,16.5
2017-08-11T07:16:59.420Z,16.5
2017-08-11T07:18:01.886Z,16.5
2017-08-11T07:19:04.411Z,16.6
2017-08-11T07:20:06.832Z,16.6
2017-08-11T07:21:09.288Z,16.5
2017-08-11T07:22:11.715Z,16.5
2017-08-11T07:23:14.182Z,16.2
2017-08-11T07:24:16.735Z,16.6
2017-08-11T07:25:19.306Z,16.6
2017-08-11T07:26:21.654Z,16.7
2017-08-11T07:27:24.069Z,16.6
2017-08-11T07:28:26.525Z,16.4
2017-08-11T07:29:28.976Z,16.5
2017-08-11T07:30:31.404Z,16.5
2017-08-11T07:31:33.796Z,16.3
2017-08-11T07:32:36.193Z,16.6
2017-08-11T07:33:38.746Z,16.6
2017-08-11T07:34:41.480Z,16.5
2017-08-11T07:35:44.364Z,16.6
2017-08-11T07:36:49.293Z,16.6
2017-08-11T07:37:52.015Z,16.3
2017-08-11T07:38:54.410Z,16.1
2017-08-11T07:39:57.007Z,16.4
2017-08-11T07:40:59.576Z,16.3
2017-08-11T07:42:02.042Z,16.1
2017-08-11T07:43:04.490Z,16.4
2017-08-11T07:44:07.024Z,16.5
2017-08-11T07:45:09.508Z,16.1
2017-08-11T07:46:11.965Z,16.5
2017-08-11T07:47:14.452Z,16.4
2017-08-11T07:48:16.860Z,16.5
2017-08-11T07:49:19.495Z,16.4
2017-08-11T07:50:23.049Z,16.5
2017-08-11T07:51:25.437Z,16.6
2017-08-11T07:52:27.923Z,16.6
2017-08-11T07:53:30.377Z,16.5
2017-08-11T07:54:32.936Z,16.6
2017-08-11T07:55:35.601Z,16.5
2017-08-11T07:56:38.393Z,16.6
2017-08-11T07:57:40.845Z,16.5
2017-08-11T07:58:43.318Z,16.4
2017-08-11T07:59:46.287Z,16.6
2017-08-11T08:00:49.001Z,16.7
2017-08-11T08:01:51.512Z,16.3
2017-08-11T08:02:54.027Z,16.3
2017-08-11T08:03:56.411Z,16.4
2017-08-11T08:04:59.075Z,16.4
2017-08-11T08:06:01.551Z,16.4
2017-08-11T08:07:03.988Z,16.5
2017-08-11T08:08:06.372Z,16.4
2017-08-11T08:09:09.014Z,16.4
2017-08-11T08:10:11.443Z,16.5
2017-08-11T08:11:13.961Z,16.6
2017-08-11T08:12:19.038Z,16.5
2017-08-11T08:13:21.769Z,16.4
2017-08-11T08:14:24.343Z,16.5
2017-08-11T08:15:26.790Z,16.5
2017-08-11T08:16:29.228Z,16.5
2017-08-11T08:17:31.947Z,16.5
2017-08-11T08:18:34.395Z,16.5
2017-08-11T08:19:36.917Z,16.7
2017-08-11T08:20:39.555Z,16.6
2017-08-11T08:21:42.182Z,16.7
2017-08-11T08:22:44.632Z,16.6
2017-08-11T08:23:47.036Z,16.7
2017-08-11T08:24:49.465Z,16.6
2017-08-11T08:25:52.291Z,16.5
2017-08-11T08:26:54.909Z,16.4
2017-08-11T08:27:57.439Z,16.5
2017-08-11T08:28:59.918Z,16.5
2017-08-11T08:30:02.355Z,16.4
2017-08-11T08:31:04.940Z,16.4
2017-08-11T08:32:07.602Z,16.5
2017-08-11T08:33:10.101Z,16.5
2017-08-11T08:34:12.593Z,16.6
2017-08-11T08:35:18.953Z,16.5
2017-08-11T08:36:22.833Z,16.6
2017-08-11T08:37:25.322Z,16.6
2017-08-11T08:38:27.818Z,16.6
2017-08-11T08:39:30.354Z,16.7
2017-08-11T08:40:32.814Z,16.6
2017-08-11T08:41:35.313Z,16.5
2017-08-11T08:42:37.835Z,16.5
2017-08-11T08:43:43.502Z,16.6
2017-08-11T08:44:46.070Z,16.5
2017-08-11T08:45:48.619Z,16.3
2017-08-11T08:46:51.190Z,16.6
2017-08-11T08:47:53.781Z,16.5
2017-08-11T08:48:56.242Z,16.7
2017-08-11T08:49:58.737Z,16.7
2017-08-11T08:51:01.164Z,16.5
2017-08-11T08:52:03.748Z,16.7
2017-08-11T08:53:06.178Z,16.7
2017-08-11T08:54:09.368Z,16.8
2017-08-11T08:55:11.818Z,16.7
2017-08-11T08:56:17.608Z,16.2
2017-08-11T08:57:25.767Z,16.4
2017-08-11T08:58:31.083Z,16.5
2017-08-11T08:59:33.514Z,16.5
2017-08-11T09:00:36.048Z,16.7
2017-08-11T09:01:38.521Z,16.7
2017-08-11T09:02:40.916Z,16.7
2017-08-11T09:03:43.435Z,16.6
2017-08-11T09:04:45.911Z,16.6
2017-08-11T09:05:48.455Z,16.7
2017-08-11T09:06:50.972Z,16.8
2017-08-11T09:07:53.419Z,16.7
2017-08-11T09:08:55.863Z,16.6
2017-08-11T09:09:58.435Z,16.5
2017-08-11T09:11:00.866Z,16.6
2017-08-11T09:12:03.331Z,16.1
2017-08-11T09:13:05.868Z,16.7
2017-08-11T09:14:08.469Z,16.8
2017-08-11T09:15:11.593Z,16.7
2017-08-11T09:16:14.036Z,16.5
2017-08-11T09:17:16.548Z,16.6
2017-08-11T09:18:19.239Z,16.6
2017-08-11T09:19:21.808Z,16.3
2017-08-11T09:20:24.350Z,16.4
2017-08-11T09:21:26.769Z,16.7
2017-08-11T09:22:29.228Z,16.4
2017-08-11T09:23:31.813Z,16.7
2017-08-11T09:24:34.298Z,16.7
2017-08-11T09:25:36.778Z,16.7
2017-08-11T09:26:39.426Z,16.7
2017-08-11T09:27:41.965Z,16.7
2017-08-11T09:28:44.539Z,16.7
2017-08-11T09:29:47.027Z,16.7
2017-08-11T09:30:49.592Z,16.3
2017-08-11T09:31:51.960Z,16.8
2017-08-11T09:32:54.367Z,16.8
2017-08-11T09:33:56.856Z,16.9
2017-08-11T09:34:59.461Z,16.9
2017-08-11T09:36:01.979Z,16.9
2017-08-11T09:37:04.453Z,17
2017-08-11T09:38:06.850Z,17
2017-08-11T09:39:09.952Z,17
2017-08-11T09:40:12.637Z,16.9
2017-08-11T09:41:15.502Z,16.8
2017-08-11T09:42:18.485Z,17
2017-08-11T09:43:20.916Z,17
2017-08-11T09:44:23.406Z,17
2017-08-11T09:45:25.875Z,17
2017-08-11T09:46:28.533Z,17
2017-08-11T09:47:30.984Z,17.1
2017-08-11T09:48:33.498Z,17
2017-08-11T09:49:35.999Z,16.9
2017-08-11T09:50:39.044Z,17
2017-08-11T09:51:41.577Z,16.7
2017-08-11T09:52:44.286Z,17
2017-08-11T09:53:46.690Z,16.7
2017-08-11T09:54:49.241Z,16.9
2017-08-11T09:55:51.682Z,16.9
2017-08-11T09:56:54.107Z,17
2017-08-11T09:57:57.218Z,17.1
2017-08-11T09:59:03.152Z,17
2017-08-11T10:00:06.340Z,17
2017-08-11T10:01:09.086Z,17
2017-08-11T10:02:11.548Z,17
2017-08-11T10:03:14.048Z,17
2017-08-11T10:04:16.555Z,17.1
2017-08-11T10:05:19.230Z,17
2017-08-11T10:06:22.188Z,16.9
2017-08-11T10:07:25.164Z,16.9
2017-08-11T10:08:27.730Z,16.8
2017-08-11T10:09:30.552Z,16.8
2017-08-11T10:10:34.286Z,16.9
2017-08-11T10:11:37.406Z,17
2017-08-11T10:12:40.591Z,16.9
2017-08-11T10:13:46.086Z,16.8
2017-08-11T10:14:49.753Z,16.9
2017-08-11T10:15:53.199Z,16.9
2017-08-11T10:16:55.853Z,16.9
2017-08-11T10:17:58.493Z,16.9
2017-08-11T10:19:00.954Z,16.7
2017-08-11T10:20:03.377Z,17
2017-08-11T10:21:05.744Z,17
2017-08-11T10:22:08.335Z,17.1
2017-08-11T10:23:10.802Z,16.9
2017-08-11T10:24:13.280Z,17.1
2017-08-11T10:25:15.796Z,17
2017-08-11T10:26:18.660Z,17.1
2017-08-11T10:27:22.197Z,17.1
2017-08-11T10:28:25.247Z,17.1
2017-08-11T10:29:27.689Z,17.1
2017-08-11T10:30:30.159Z,17.3
2017-08-11T10:31:32.660Z,17.3
2017-08-11T10:32:35.788Z,17.2
2017-08-11T10:33:38.361Z,17.1
2017-08-11T10:34:41.514Z,17
2017-08-11T10:35:43.983Z,16.9
2017-08-11T10:36:46.353Z,16.7
2017-08-11T10:37:48.808Z,16.6
2017-08-11T10:38:51.234Z,16.8
2017-08-11T10:39:54.231Z,16.9
2017-08-11T10:40:56.632Z,17
2017-08-11T10:41:59.710Z,17
2017-08-11T10:43:02.964Z,16.8
2017-08-11T10:44:05.375Z,16.9
2017-08-11T10:45:07.838Z,16.9
2017-08-11T10:46:10.332Z,17
2017-08-11T10:47:13.666Z,17
2017-08-11T10:48:16.233Z,17
2017-08-11T10:49:18.811Z,17
2017-08-11T10:50:21.272Z,17.1
2017-08-11T10:51:23.887Z,17.2
2017-08-11T10:52:26.457Z,17.2
2017-08-11T10:53:28.998Z,17.3
2017-08-11T10:54:31.420Z,17.2
2017-08-11T10:55:33.895Z,17.2
2017-08-11T10:56:36.340Z,16.9
2017-08-11T10:57:39.140Z,17
2017-08-11T10:58:41.988Z,17
2017-08-11T10:59:44.818Z,16.9
2017-08-11T11:00:47.346Z,17.1
2017-08-11T11:01:49.935Z,17.1
2017-08-11T11:02:52.633Z,17.1
2017-08-11T11:03:55.929Z,17.1
2017-08-11T11:04:58.602Z,16.9
2017-08-11T11:06:01.278Z,16.7
2017-08-11T11:07:04.203Z,16.7
2017-08-11T11:08:06.620Z,16.8
2017-08-11T11:09:09.154Z,16.8
2017-08-11T11:10:11.582Z,16.9
2017-08-11T11:11:14.593Z,17
2017-08-11T11:12:16.942Z,17
2017-08-11T11:13:19.464Z,16.6
2017-08-11T11:14:21.906Z,16.8
2017-08-11T11:15:25.043Z,16.6
2017-08-11T11:16:27.498Z,16.7
2017-08-11T11:17:30.116Z,16.8
2017-08-11T11:18:33.162Z,16.8
2017-08-11T11:19:35.629Z,16.8
2017-08-11T11:20:38.049Z,16.8
2017-08-11T11:21:40.549Z,16.9
2017-08-11T11:22:42.951Z,16.6
2017-08-11T11:23:45.361Z,16.5
2017-08-11T11:25:59.894Z,16.9
2017-08-11T11:27:02.491Z,16.9
2017-08-11T11:28:05.276Z,16.8
2017-08-11T11:29:10.143Z,16.7
2017-08-11T11:30:18.850Z,16.5
2017-08-11T11:31:21.566Z,16.7
2017-08-11T11:32:24.853Z,16.6
2017-08-11T11:33:31.285Z,16.4
2017-08-11T11:34:34.089Z,16.7
2017-08-11T11:35:37.513Z,16.8
2017-08-11T11:36:40.310Z,16.6
2017-08-11T11:37:42.892Z,16.6
2017-08-11T11:38:45.568Z,16.8
2017-08-11T11:39:50.393Z,16.8
2017-08-11T11:40:55.192Z,16.9
2017-08-11T11:41:58.824Z,16.8
2017-08-11T11:43:01.348Z,16.9
2017-08-11T11:44:04.760Z,16.4
2017-08-11T11:45:07.302Z,16.5
2017-08-11T11:46:09.850Z,16.6
2017-08-11T11:47:12.480Z,16.6
2017-08-11T11:48:15.105Z,16.5
2017-08-11T11:49:17.696Z,16.6
2017-08-11T11:50:20.949Z,16.5
2017-08-11T11:51:24.235Z,16.3
2017-08-11T11:52:26.727Z,16
2017-08-11T11:53:29.335Z,16.2
2017-08-11T11:54:31.897Z,16.2
2017-08-11T11:55:34.464Z,16.5
2017-08-11T11:56:37.039Z,16.4
2017-08-11T11:57:39.543Z,16.4
2017-08-11T11:58:42.134Z,16.4
2017-08-11T11:59:52.611Z,16.3
2017-08-11T12:00:55.294Z,16.3
2017-08-11T12:01:57.765Z,16.2
2017-08-11T12:03:00.251Z,16.1
2017-08-11T12:04:02.674Z,16.4
2017-08-11T12:05:05.446Z,16.5
2017-08-11T12:06:08.468Z,16.3
2017-08-11T12:07:11.033Z,16.5
2017-08-11T12:08:15.935Z,16.4
2017-08-11T12:09:19.118Z,16.4
2017-08-11T12:10:21.620Z,16.2
2017-08-11T12:11:24.164Z,16.1
2017-08-11T12:12:26.635Z,16.4
2017-08-11T12:13:29.185Z,16.6
2017-08-11T12:14:31.613Z,16.7
2017-08-11T12:15:34.195Z,16.7
2017-08-11T12:16:36.666Z,16.7
2017-08-11T12:17:39.399Z,16.7
2017-08-11T12:18:42.033Z,16.5
2017-08-11T12:19:44.584Z,16.5
2017-08-11T12:20:47.172Z,16.4
2017-08-11T12:21:49.857Z,16.5
2017-08-11T12:22:52.553Z,16.7
2017-08-11T12:23:55.315Z,16.8
2017-08-11T12:24:57.831Z,16.8
2017-08-11T12:26:00.472Z,16.8
2017-08-11T12:27:03.042Z,16.8
2017-08-11T12:28:06.257Z,16.8
2017-08-11T12:29:08.737Z,16.5
2017-08-11T12:30:11.538Z,16.8
2017-08-11T12:31:14.030Z,16.9
2017-08-11T12:32:17.536Z,16.9
2017-08-11T12:33:20.204Z,16.7
2017-08-11T12:34:22.709Z,16.7
2017-08-11T12:35:25.195Z,16.7
2017-08-11T12:36:27.665Z,16.7
2017-08-11T12:37:31.032Z,16.7
2017-08-11T12:38:33.568Z,16.8
2017-08-11T12:39:36.790Z,16.9
2017-08-11T12:40:39.264Z,17
2017-08-11T12:41:41.653Z,17
2017-08-11T12:42:44.741Z,17
2017-08-11T12:43:48.337Z,17
2017-08-11T12:44:50.889Z,17
2017-08-11T12:45:54.286Z,17
2017-08-11T12:46:57.409Z,17
2017-08-11T12:47:59.902Z,16.9
2017-08-11T12:49:02.516Z,16.9
2017-08-11T12:50:05.593Z,16.8
2017-08-11T12:51:08.204Z,16.6
2017-08-11T12:52:10.825Z,16.5
2017-08-11T12:53:13.609Z,16.5
2017-08-11T12:54:17.154Z,16.5
2017-08-11T12:55:19.835Z,16.6
2017-08-11T12:56:24.371Z,16.8
2017-08-11T12:57:27.421Z,16.7
2017-08-11T12:58:30.068Z,16.7
2017-08-11T12:59:32.636Z,16.7
2017-08-11T13:00:35.167Z,16.6
2017-08-11T13:01:37.813Z,16.7
2017-08-11T13:02:41.570Z,16.8
2017-08-11T13:03:45.623Z,16.7
2017-08-11T13:04:50.014Z,16.5
2017-08-11T13:05:53.135Z,16.6
2017-08-11T13:06:55.670Z,16.5
2017-08-11T13:07:59.217Z,16.5
2017-08-11T13:09:01.906Z,16.4
2017-08-11T13:10:04.465Z,16.5
2017-08-11T13:11:07.080Z,16.6
2017-08-11T13:12:09.767Z,16.3
2017-08-11T13:14:20.145Z,16.6
2017-08-11T13:15:22.753Z,16.4
2017-08-11T13:16:26.781Z,16.3
2017-08-11T13:17:29.384Z,16.5
2017-08-11T13:18:31.918Z,16.7
2017-08-11T13:19:34.499Z,16.8
2017-08-11T13:20:37.559Z,16.8
2017-08-11T13:21:40.161Z,16.8
2017-08-11T13:22:42.871Z,16.7
2017-08-11T13:23:45.665Z,16.5
2017-08-11T13:24:48.211Z,16.6
2017-08-11T13:25:50.908Z,16.7
2017-08-11T13:26:54.046Z,16.5
2017-08-11T13:27:56.696Z,16.8
2017-08-11T13:28:59.304Z,16.8
2017-08-11T13:30:01.805Z,16.8
2017-08-11T13:31:04.342Z,16.6
2017-08-11T13:32:09.237Z,16.7
2017-08-11T13:33:11.744Z,16.5
2017-08-11T13:34:14.329Z,16.6
2017-08-11T13:35:17.353Z,16.4
2017-08-11T13:36:19.991Z,16.4
2017-08-11T13:37:22.572Z,16.6
2017-08-11T13:38:25.104Z,16.3
2017-08-11T13:39:27.650Z,16.1
2017-08-11T13:40:30.217Z,16.2
2017-08-11T13:41:32.776Z,16.3
2017-08-11T13:42:35.354Z,16.6
2017-08-11T13:43:38.739Z,16.5
2017-08-11T13:44:41.384Z,16.6
2017-08-11T13:45:44.181Z,16.9
2017-08-11T13:46:46.718Z,16.6
2017-08-11T13:47:49.290Z,16.5
2017-08-11T13:48:52.032Z,16.5
2017-08-11T13:49:57.011Z,16.8
2017-08-11T13:50:59.680Z,16.4
2017-08-11T13:52:02.742Z,16.3
2017-08-11T13:53:05.413Z,16.5
2017-08-11T13:54:08.012Z,16.6
2017-08-11T13:55:10.665Z,16.3
2017-08-11T13:56:13.434Z,16.6
2017-08-11T13:57:17.436Z,16.6
2017-08-11T13:58:20.206Z,16.5
2017-08-11T13:59:23.018Z,16.4
2017-08-11T14:00:26.979Z,16.1
2017-08-11T14:01:29.954Z,16.5